< < Back
Terminal Aerodrome Forecast


Current Version              Previous Versions:   1  2  3  4  5  6  7  8  9  

Terminal Aerodrome Forecast

880
FTUS42 KJAX 302000 AAA
TAFGNV
TAF AMD
KGNV 302032Z 3021/3118 31005KT P6SM VCTS SCT025CB BKN080
      TEMPO 3021/3023 SHRA BKN025
     FM302300 33004KT P6SM VCSH SCT020 BKN040
     FM310700 35006KT P6SM SCT015 BKN060
     FM311500 33008KT P6SM FEW040=



Latest METAR

212
SAUS70 KWBC 310400 RRF
MTRGNV
METAR KGNV 310353Z AUTO 33004KT 10SM OVC043 17/16 A2992 RMK AO2 SLP130
T01720156


USA.gov is the U.S. government's official web portal to all federal, state and local government web resources and services.